Time;durP1;ratioP1;P1;durP2;ratioP2;P2;SDS_P1;SDS_P2;PMS_P1;PMS_P2;Temp;Humidity;BMP_temperature;BMP_pressure;BME280_temperature;BME280_humidity;BME280_pressure;Samples;Min_cycle;Max_cycle;Signal;HPM_P1;HPM_P2
2022/03/10 00:02:07;;;;;;;12.82;9.63;;;;;;;5.14;43.03;99989.91;5028569;28;20058;-68
2022/03/10 00:04:38;;;;;;;12.10;7.85;;;;;;;5.14;42.67;100000.41;5028606;28;20064;-68
2022/03/10 00:07:08;;;;;;;11.43;7.97;;;;;;;5.06;42.96;99991.84;5028522;28;20042;-68
2022/03/10 00:09:38;;;;;;;11.65;8.20;;;;;;;5.05;43.00;99982.22;5028477;28;20048;-69
2022/03/10 00:12:08;;;;;;;12.98;8.73;;;;;;;4.33;42.86;99881.38;5028422;28;20042;-68
2022/03/10 00:14:39;;;;;;;11.13;8.20;;;;;;;4.98;43.27;99996.41;5028379;28;20112;-68
2022/03/10 00:17:08;;;;;;;11.43;7.90;;;;;;;4.95;42.95;100001.72;5028069;28;20042;-68
2022/03/10 00:19:38;;;;;;;10.02;7.35;;;;;;;4.71;43.03;99963.69;5028268;28;20092;-67
2022/03/10 00:22:11;;;;;;;12.60;7.90;;;;;;;4.89;43.21;100001.81;5028006;28;20048;-67
2022/03/10 00:24:39;;;;;;;11.93;8.20;;;;;;;4.90;43.07;99996.56;5026890;28;20257;-67
2022/03/10 00:27:09;;;;;;;11.10;7.00;;;;;;;4.90;43.02;99999.19;5028178;28;20042;-68
2022/03/10 00:29:41;;;;;;;9.85;7.20;;;;;;;4.93;43.21;100003.53;5028132;28;20052;-68
2022/03/10 00:32:10;;;;;;;9.40;7.28;;;;;;;4.81;43.45;100002.84;5028080;28;20064;-68
2022/03/10 00:34:40;;;;;;;9.90;6.90;;;;;;;4.79;43.00;100002.03;5027793;28;20042;-68
2022/03/10 00:37:10;;;;;;;10.65;7.65;;;;;;;4.87;42.88;100004.47;5027954;28;20070;-68
2022/03/10 00:39:40;;;;;;;13.80;7.80;;;;;;;4.80;43.43;100001.13;5026831;28;20076;-68
2022/03/10 00:42:11;;;;;;;13.40;8.65;;;;;;;4.80;43.12;100094.81;5027426;28;20048;-68
2022/03/10 00:44:42;;;;;;;13.90;8.32;;;;;;;4.75;43.35;100005.59;5027607;28;20297;-67
2022/03/10 00:47:11;;;;;;;11.30;8.63;;;;;;;4.70;43.51;100007.47;5027596;28;20042;-68
2022/03/10 00:49:41;;;;;;;10.77;7.47;;;;;;;4.67;43.48;100015.41;5027775;28;20060;-68
2022/03/10 00:52:12;;;;;;;12.30;8.35;;;;;;;4.68;43.28;100011.03;5027444;28;20038;-67
2022/03/10 00:54:42;;;;;;;11.60;7.95;;;;;;;4.66;43.12;100011.06;5027278;28;20209;-69
2022/03/10 00:57:12;;;;;;;16.17;9.15;;;;;;;4.63;43.69;100015.50;5043126;28;20065;-68
2022/03/10 00:59:44;;;;;;;10.43;8.48;;;;;;;4.54;43.88;100016.56;5027331;28;20048;-68
2022/03/10 01:02:13;;;;;;;15.88;10.55;;;;;;;4.45;44.09;100024.63;5027295;28;20285;-68
2022/03/10 01:04:44;;;;;;;14.77;9.20;;;;;;;4.51;43.72;100014.00;5027501;28;20041;-68
2022/03/10 01:07:13;;;;;;;10.70;7.50;;;;;;;4.43;44.32;100016.78;5027474;28;20042;-68
2022/03/10 01:09:43;;;;;;;10.93;7.85;;;;;;;4.39;44.16;100022.09;5027146;28;20052;-68
2022/03/10 01:12:14;;;;;;;11.90;7.70;;;;;;;4.40;43.75;100022.06;5027115;28;20369;-68
2022/03/10 01:14:45;;;;;;;12.45;8.10;;;;;;;4.38;44.08;100017.75;5027053;28;20042;-68
2022/03/10 01:17:14;;;;;;;14.30;8.07;;;;;;;4.38;43.98;100023.88;5026984;28;20037;-68
2022/03/10 01:19:45;;;;;;;12.05;8.45;;;;;;;4.37;44.18;100019.50;5026952;28;20042;-68
2022/03/10 01:22:15;;;;;;;12.68;8.65;;;;;;;4.37;43.96;100023.91;5027112;28;20285;-67
2022/03/10 01:24:45;;;;;;;15.70;8.13;;;;;;;4.36;44.47;100019.53;5026837;28;20121;-68
2022/03/10 01:27:15;;;;;;;12.18;8.75;;;;;;;4.33;44.06;100017.84;5027042;28;20073;-68
2022/03/10 01:29:47;;;;;;;13.43;8.13;;;;;;;4.26;44.32;100020.63;5027016;28;20116;-68
2022/03/10 01:32:16;;;;;;;12.52;7.88;;;;;;;4.24;44.22;100030.28;5027267;28;20286;-67
2022/03/10 01:34:46;;;;;;;11.60;7.72;;;;;;;4.22;44.25;100027.69;5026904;28;20042;-68
2022/03/10 01:37:16;;;;;;;12.98;9.77;;;;;;;4.21;44.15;100020.69;5026632;28;20068;-68
2022/03/10 01:39:47;;;;;;;13.68;8.77;;;;;;;4.13;44.55;100025.19;5026584;28;20069;-68
2022/03/10 01:42:18;;;;;;;11.85;8.82;;;;;;;4.13;44.74;100026.06;5026697;28;20046;-67
2022/03/10 01:44:53;;;;;;;18.88;10.00;;;;;;;4.12;45.45;100028.72;5026746;28;20052;-68
2022/03/10 01:47:23;;;;;;;16.63;10.25;;;;;;;4.12;44.74;100036.56;5026399;28;20064;-68
2022/03/10 01:49:52;;;;;;;12.02;8.38;;;;;;;4.09;44.57;100029.63;5026664;28;20038;-68
2022/03/10 01:52:23;;;;;;;13.30;7.85;;;;;;;4.06;44.69;100032.31;5026353;28;20041;-68
2022/03/10 01:54:54;;;;;;;14.27;7.82;;;;;;;4.12;44.48;100032.19;5025435;28;20340;-68
2022/03/10 01:57:24;;;;;;;12.38;8.73;;;;;;;4.05;44.50;100035.81;5026541;28;20062;-68
2022/03/10 01:59:55;;;;;;;13.23;8.57;;;;;;;4.01;44.67;100028.91;5026221;28;20040;-68
2022/03/10 02:02:24;;;;;;;11.43;8.48;;;;;;;3.98;44.69;100038.59;5026098;28;20068;-68
2022/03/10 02:04:54;;;;;;;13.52;8.60;;;;;;;3.94;45.01;100035.16;5026155;28;20179;-68
2022/03/10 02:10:20;;;;;;;12.25;8.93;;;;;;;4.00;44.87;100045.53;5026055;28;20234;-68
2022/03/10 02:12:54;;;;;;;13.30;8.93;;;;;;;3.98;44.97;100054.31;5026293;28;20096;-68
2022/03/10 02:18:19;;;;;;;12.30;9.10;;;;;;;3.88;44.99;100058.84;5026177;28;20498;-68
2022/03/10 02:20:51;;;;;;;11.85;8.48;;;;;;;3.92;44.97;100060.53;5026037;28;20293;-68
2022/03/10 02:23:25;;;;;;;14.15;10.60;;;;;;;3.76;45.09;100030.22;5026083;28;20045;-67
2022/03/10 02:25:59;;;;;;;11.77;8.75;;;;;;;3.87;45.02;100062.38;5026073;28;20042;-68
2022/03/10 02:28:33;;;;;;;13.17;8.83;;;;;;;3.85;45.10;100067.63;5026048;28;20050;-68
2022/03/10 02:31:05;;;;;;;9.70;7.53;;;;;;;3.84;45.30;100070.28;5026308;28;20092;-67
2022/03/10 02:33:38;;;;;;;10.70;7.60;;;;;;;3.88;45.05;100066.72;5025709;28;20042;-68
2022/03/10 02:36:11;;;;;;;14.02;8.85;;;;;;;3.89;45.21;100072.84;5025652;28;20042;-68
2022/03/10 02:38:44;;;;;;;12.95;8.38;;;;;;;3.87;45.19;100072.00;5025559;28;20042;-68
2022/03/10 02:41:16;;;;;;;13.27;9.20;;;;;;;3.80;45.37;100073.84;5025794;28;20049;-68
2022/03/10 02:43:48;;;;;;;11.45;8.50;;;;;;;3.74;45.51;100076.56;5024829;28;20042;-68
2022/03/10 02:46:21;;;;;;;12.07;10.10;;;;;;;3.68;45.37;100082.78;5025072;28;20060;-68
2022/03/10 02:48:53;;;;;;;17.02;10.25;;;;;;;3.55;46.26;100081.22;5025807;28;20041;-67
2022/03/10 02:51:25;;;;;;;12.50;8.93;;;;;;;3.45;46.17;100083.13;5025778;28;20046;-68
2022/03/10 02:53:58;;;;;;;13.20;8.10;;;;;;;3.47;46.19;100085.72;5025206;28;20119;-67
2022/03/10 02:56:31;;;;;;;12.60;9.02;;;;;;;3.45;45.98;100083.13;5025460;28;20041;-68
2022/03/10 02:59:03;;;;;;;14.63;9.02;;;;;;;3.43;46.48;100090.16;5025415;28;20088;-68
2022/03/10 03:01:35;;;;;;;12.68;8.55;;;;;;;3.32;46.73;100094.66;5025610;28;20049;-67
2022/03/10 03:04:07;;;;;;;11.05;8.88;;;;;;;3.24;46.74;100093.03;5025404;28;20042;-68
2022/03/10 03:06:40;;;;;;;13.95;9.82;;;;;;;3.23;47.00;100101.78;5029056;28;20042;-68
2022/03/10 03:09:13;;;;;;;13.93;9.85;;;;;;;3.16;46.79;100095.78;5029622;28;20233;-68
2022/03/10 03:11:45;;;;;;;15.02;8.85;;;;;;;3.20;46.83;100098.31;5029605;28;20096;-67
2022/03/10 03:14:17;;;;;;;13.40;8.98;;;;;;;3.16;46.39;100104.50;5029556;28;20038;-68
2022/03/10 03:16:50;;;;;;;13.70;8.43;;;;;;;3.04;47.07;100109.88;5029497;28;20049;-67
2022/03/10 03:19:22;;;;;;;11.95;8.35;;;;;;;3.06;46.59;100105.50;5029164;28;20144;-67
2022/03/10 03:21:55;;;;;;;13.73;9.13;;;;;;;3.05;46.79;100111.63;5029442;28;20046;-68
2022/03/10 03:24:28;;;;;;;13.60;8.98;;;;;;;3.02;46.93;100108.19;5029106;28;20088;-68
2022/03/10 03:27:01;;;;;;;11.38;8.52;;;;;;;3.08;46.64;100118.56;5029312;28;20116;-68
2022/03/10 03:29:33;;;;;;;14.88;10.20;;;;;;;3.08;46.75;100118.56;5029195;28;20057;-68
2022/03/10 03:32:06;;;;;;;10.98;7.60;;;;;;;3.03;47.14;100118.63;5028930;28;20046;-68
2022/03/10 03:34:38;;;;;;;14.80;9.70;;;;;;;3.00;47.07;100118.66;5028917;28;20254;-68
2022/03/10 03:37:10;;;;;;;14.90;9.35;;;;;;;3.00;47.01;100123.03;5029147;28;20046;-67
2022/03/10 03:39:44;;;;;;;11.88;8.85;;;;;;;2.94;47.46;100125.72;5029028;28;20054;-68
2022/03/10 03:42:16;;;;;;;13.50;8.55;;;;;;;2.93;47.51;100131.84;5028886;28;20057;-68
2022/03/10 03:44:48;;;;;;;12.70;9.57;;;;;;;2.93;47.21;100132.72;5028813;28;20084;-68
2022/03/10 03:47:20;;;;;;;15.30;9.98;;;;;;;2.95;47.46;100132.72;5028697;28;20130;-68
2022/03/10 03:49:53;;;;;;;12.73;8.38;;;;;;;2.91;47.36;100131.00;5028908;28;20038;-68
2022/03/10 03:52:23;;;;;;;15.10;8.80;;;;;;;2.87;47.37;100141.50;5028890;28;20052;-68
2022/03/10 03:54:55;;;;;;;12.65;8.30;;;;;;;2.79;47.63;100137.25;5028389;28;20226;-67
2022/03/10 03:57:24;;;;;;;14.00;8.80;;;;;;;2.78;47.75;100135.50;5028966;28;20041;-67
2022/03/10 03:59:54;;;;;;;13.55;9.38;;;;;;;2.80;47.46;100136.38;5027655;28;20061;-67
2022/03/10 04:02:24;;;;;;;13.73;9.15;;;;;;;2.79;48.06;100140.75;5028589;28;20055;-66
2022/03/10 04:04:54;;;;;;;10.93;7.45;;;;;;;2.76;47.76;100138.16;5028332;28;20198;-67
2022/03/10 04:07:24;;;;;;;13.45;7.47;;;;;;;2.77;47.66;100139.88;5028572;28;20065;-67
2022/03/10 04:09:56;;;;;;;11.20;8.80;;;;;;;1.17;47.27;99860.88;5028531;28;20042;-67
2022/03/10 04:12:25;;;;;;;13.23;9.55;;;;;;;2.78;47.38;100139.00;5028236;28;20272;-67
2022/03/10 04:14:55;;;;;;;12.65;8.45;;;;;;;2.73;47.65;100145.16;5027380;28;20084;-67
2022/03/10 04:17:25;;;;;;;13.38;8.73;;;;;;;2.74;47.35;100144.28;5027548;28;20042;-67
2022/03/10 04:19:56;;;;;;;13.38;9.00;;;;;;;2.72;47.51;100141.69;5028106;28;20049;-67
2022/03/10 04:22:26;;;;;;;12.60;8.07;;;;;;;2.70;48.26;100148.69;5028254;28;20069;-68
2022/03/10 04:24:58;;;;;;;14.23;9.55;;;;;;;2.69;47.64;100151.31;5027990;28;20069;-67
2022/03/10 04:27:27;;;;;;;12.75;9.02;;;;;;;2.63;47.91;100151.38;5028191;28;20083;-67
2022/03/10 04:29:57;;;;;;;11.13;8.32;;;;;;;2.62;47.79;100160.13;5028187;28;20042;-67
2022/03/10 04:32:27;;;;;;;13.45;9.65;;;;;;;2.59;47.89;100166.25;5027876;28;20316;-67
2022/03/10 04:34:57;;;;;;;11.18;8.30;;;;;;;2.57;48.42;100165.41;5027760;28;20042;-68
2022/03/10 04:37:27;;;;;;;12.48;8.45;;;;;;;2.60;48.11;100173.22;5028088;28;20072;-67
2022/03/10 04:39:59;;;;;;;16.67;8.70;;;;;;;2.61;47.78;100172.34;5027750;28;20101;-68
2022/03/10 04:42:28;;;;;;;15.23;9.25;;;;;;;2.56;48.07;100174.13;5027597;28;20104;-68
2022/03/10 04:44:58;;;;;;;12.98;9.55;;;;;;;2.57;48.03;100178.47;5027963;28;20125;-68
2022/03/10 04:47:29;;;;;;;11.68;7.97;;;;;;;2.56;47.94;100174.13;5027530;28;20106;-67
2022/03/10 04:49:59;;;;;;;11.43;8.35;;;;;;;2.59;47.65;100178.47;5027538;28;20096;-68
2022/03/10 04:52:30;;;;;;;11.63;8.80;;;;;;;2.59;47.83;100181.97;5027407;28;20290;-68
2022/03/10 04:55:02;;;;;;;11.57;8.40;;;;;;;2.60;47.93;100182.81;5027326;28;20265;-68
2022/03/10 04:57:30;;;;;;;12.32;7.90;;;;;;;2.64;48.02;100174.06;5027318;28;20053;-67
2022/03/10 05:00:00;;;;;;;13.05;8.05;;;;;;;2.60;48.45;100181.06;5027293;28;20037;-68
2022/03/10 05:02:30;;;;;;;15.05;8.85;;;;;;;2.63;47.70;100188.03;5027404;28;20038;-68
2022/03/10 05:05:00;;;;;;;13.05;9.18;;;;;;;2.61;47.75;100189.78;5027469;28;20352;-67
2022/03/10 05:07:31;;;;;;;11.70;8.02;;;;;;;2.60;48.20;100193.28;5027373;28;20233;-67
2022/03/10 05:10:03;;;;;;;12.77;8.25;;;;;;;2.64;47.88;100195.88;5027137;28;20042;-68
2022/03/10 05:12:31;;;;;;;13.23;9.40;;;;;;;2.71;48.16;100196.66;5027328;28;20122;-67
2022/03/10 05:15:02;;;;;;;15.48;8.52;;;;;;;2.74;47.69;100196.63;5027027;28;20161;-67
2022/03/10 05:17:32;;;;;;;12.68;9.18;;;;;;;2.59;47.76;100173.25;5027258;28;20038;-67
2022/03/10 05:20:02;;;;;;;12.68;8.73;;;;;;;2.77;47.65;100202.72;5027212;28;20049;-67
2022/03/10 05:22:43;;;;;;;11.23;8.32;;;;;;;2.74;48.99;100207.97;5026757;28;20042;-67
2022/03/10 05:25:18;;;;;;;11.57;8.20;;;;;;;2.18;48.30;100106.47;5026715;28;20097;-68
2022/03/10 05:27:50;;;;;;;12.65;9.20;;;;;;;2.75;47.73;100209.72;5026752;28;20038;-67
2022/03/10 05:30:23;;;;;;;13.60;8.48;;;;;;;2.78;47.66;100212.31;5025090;28;20049;-67
2022/03/10 05:32:55;;;;;;;13.60;9.63;;;;;;;2.75;47.65;100216.69;5026605;28;20294;-67
2022/03/10 05:35:29;;;;;;;15.27;8.63;;;;;;;2.84;47.51;100216.59;5026518;28;20042;-67
2022/03/10 05:38:01;;;;;;;14.88;9.77;;;;;;;2.78;48.06;100224.53;5026639;28;20088;-67
2022/03/10 05:40:35;;;;;;;14.77;9.52;;;;;;;2.75;48.54;100230.66;5026732;28;20049;-68
2022/03/10 05:43:07;;;;;;;13.32;8.98;;;;;;;2.74;48.16;100226.31;5026745;28;20049;-67
2022/03/10 05:45:42;;;;;;;14.15;10.27;;;;;;;2.71;48.33;100231.56;5026499;28;20037;-68
2022/03/10 05:48:14;;;;;;;15.40;9.73;;;;;;;2.77;47.96;100238.50;5027597;28;20117;-67
2022/03/10 05:50:46;;;;;;;13.18;8.68;;;;;;;2.75;47.98;100240.25;5026606;28;20084;-68
2022/03/10 05:53:19;;;;;;;13.48;9.45;;;;;;;2.79;48.09;100239.34;5026150;28;20078;-68
2022/03/10 05:55:52;;;;;;;12.95;8.30;;;;;;;2.76;48.65;100245.47;5026522;28;20104;-68
2022/03/10 05:58:24;;;;;;;11.57;9.07;;;;;;;2.78;48.22;100248.09;5026222;28;20046;-67
2022/03/10 06:00:57;;;;;;;14.02;10.30;;;;;;;2.81;47.85;100254.16;5025670;28;20042;-68
2022/03/10 06:03:29;;;;;;;15.75;10.27;;;;;;;2.82;48.31;100250.66;5026281;28;20092;-68
2022/03/10 06:06:01;;;;;;;15.77;9.60;;;;;;;2.80;48.05;100251.56;5026329;28;20042;-68
2022/03/10 06:08:34;;;;;;;15.50;9.85;;;;;;;2.80;48.13;100259.41;5026025;28;20306;-67
2022/03/10 06:11:09;;;;;;;16.67;10.80;;;;;;;2.83;48.17;100267.22;5026264;28;20057;-67
2022/03/10 06:13:42;;;;;;;15.15;9.10;;;;;;;-0.79;48.54;99637.22;5026027;28;20050;-69
2022/03/10 06:16:14;;;;;;;13.27;8.45;;;;;;;2.95;47.98;100271.50;5025997;28;20050;-68
2022/03/10 06:18:46;;;;;;;13.82;9.57;;;;;;;2.97;48.12;100265.34;5026146;28;20050;-68
2022/03/10 06:21:18;;;;;;;12.93;8.82;;;;;;;3.02;48.53;100267.94;5025768;28;20352;-69
2022/03/10 06:23:50;;;;;;;17.75;10.43;;;;;;;3.03;48.19;100274.91;5025818;28;20049;-68
2022/03/10 06:26:24;;;;;;;13.75;8.88;;;;;;;3.04;48.55;100274.00;5024963;28;20195;-68
2022/03/10 06:28:56;;;;;;;20.35;9.40;;;;;;;3.12;48.01;100282.66;5025885;28;20050;-67
2022/03/10 06:31:28;;;;;;;13.52;9.90;;;;;;;1.76;48.44;100058.91;5025861;28;20038;-68
2022/03/10 06:34:01;;;;;;;13.07;9.98;;;;;;;3.14;48.42;100288.75;5025609;28;20096;-66
2022/03/10 06:36:33;;;;;;;12.02;8.77;;;;;;;3.20;48.22;100297.41;5025709;28;20057;-65
2022/03/10 06:39:06;;;;;;;15.10;9.43;;;;;;;3.26;47.90;100293.00;5025419;28;20064;-68
2022/03/10 06:41:39;;;;;;;16.60;11.43;;;;;;;3.33;47.96;100299.91;5025242;28;20049;-69
2022/03/10 06:44:11;;;;;;;14.00;10.27;;;;;;;3.39;48.56;100302.47;5025473;28;20053;-66
2022/03/10 06:46:44;;;;;;;16.40;10.32;;;;;;;3.47;48.56;100304.09;5025476;28;20046;-68
2022/03/10 06:49:16;;;;;;;20.50;11.65;;;;;;;3.54;48.49;100304.91;5025652;28;20049;-69
2022/03/10 06:51:48;;;;;;;20.35;11.00;;;;;;;3.60;48.06;100304.84;5025320;28;20046;-66
2022/03/10 06:54:20;;;;;;;13.88;9.50;;;;;;;3.64;48.95;100311.78;5024359;28;20318;-67
2022/03/10 06:56:54;;;;;;;17.15;11.30;;;;;;;3.70;48.19;100313.47;5025074;28;20037;-66
2022/03/10 06:59:26;;;;;;;34.85;11.05;;;;;;;3.73;48.18;100313.44;5025506;28;20050;-67
2022/03/10 07:01:59;;;;;;;19.27;11.15;;;;;;;3.77;48.16;100313.38;5025488;28;20088;-67
2022/03/10 07:04:31;;;;;;;16.02;11.32;;;;;;;3.83;48.26;100309.81;5025495;28;20100;-67
2022/03/10 07:07:03;;;;;;;18.50;11.82;;;;;;;3.90;48.69;100315.84;5025318;28;20105;-67
2022/03/10 07:09:35;;;;;;;18.20;12.35;;;;;;;3.93;48.50;100316.66;5025518;28;20096;-67
2022/03/10 07:12:10;;;;;;;20.75;13.60;;;;;;;3.99;49.06;100313.97;5025483;28;20088;-67
2022/03/10 07:14:42;;;;;;;20.83;11.40;;;;;;;4.05;48.15;100319.13;5025271;28;20249;-67
2022/03/10 07:17:14;;;;;;;16.08;10.65;;;;;;;4.11;48.20;100316.41;5024981;28;20221;-67
2022/03/10 07:19:47;;;;;;;20.02;12.48;;;;;;;4.20;48.05;100310.22;5025069;28;20050;-67
2022/03/10 07:22:19;;;;;;;14.00;10.10;;;;;;;4.30;48.00;100314.44;5025252;28;20298;-67
2022/03/10 07:24:52;;;;;;;17.95;12.10;;;;;;;4.38;48.26;100312.56;5024649;28;20041;-67
2022/03/10 07:27:26;;;;;;;17.73;11.43;;;;;;;4.45;48.35;100316.84;5025111;28;20038;-67
2022/03/10 07:29:58;;;;;;;16.35;10.95;;;;;;;4.47;48.72;100315.06;5024886;28;20092;-67
2022/03/10 07:32:30;;;;;;;20.73;13.30;;;;;;;4.52;48.69;100312.34;5024910;28;20042;-68
2022/03/10 07:35:02;;;;;;;17.38;12.70;;;;;;;4.60;48.39;100310.47;5024926;28;20051;-68
2022/03/10 07:37:34;;;;;;;17.65;13.35;;;;;;;4.63;49.06;100320.94;5025065;28;20046;-68
2022/03/10 07:40:08;;;;;;;21.23;14.40;;;;;;;4.64;48.55;100317.41;5025281;28;20041;-67
2022/03/10 07:42:41;;;;;;;18.20;12.82;;;;;;;4.68;48.78;100319.09;5025166;28;20352;-68
2022/03/10 07:45:13;;;;;;;19.67;13.15;;;;;;;4.71;48.50;100316.44;5025156;28;20088;-68
2022/03/10 07:47:44;;;;;;;18.13;13.63;;;;;;;4.77;49.05;100318.09;5025126;28;20049;-67
2022/03/10 07:50:14;;;;;;;21.90;13.93;;;;;;;4.81;48.48;100322.41;5025045;28;20272;-68
2022/03/10 07:52:44;;;;;;;23.08;14.52;;;;;;;4.87;48.51;100317.03;5026315;28;20128;-68
2022/03/10 07:55:15;;;;;;;19.70;13.75;;;;;;;4.96;48.60;100313.44;5028421;28;20057;-68
2022/03/10 07:57:46;;;;;;;23.23;16.80;;;;;;;5.07;49.05;100316.75;5028756;28;20073;-67
2022/03/10 08:00:16;;;;;;;24.27;13.88;;;;;;;5.17;48.29;100331.44;5028526;28;20080;-68
2022/03/10 08:02:45;;;;;;;23.80;15.75;;;;;;;5.25;48.85;100320.78;5028556;28;20048;-68
2022/03/10 08:05:15;;;;;;;22.77;15.77;;;;;;;5.35;48.84;100317.09;5028511;28;20041;-67
2022/03/10 08:07:45;;;;;;;33.72;16.98;;;;;;;5.41;48.87;100320.50;5028430;28;20046;-67
2022/03/10 08:10:16;;;;;;;22.73;15.52;;;;;;;5.55;48.63;100320.22;5028231;28;20267;-68
2022/03/10 08:12:47;;;;;;;22.70;15.65;;;;;;;5.67;48.99;100316.50;5028233;28;20100;-68
2022/03/10 08:15:16;;;;;;;20.90;15.43;;;;;;;5.88;47.79;100320.44;5028192;28;20109;-68
2022/03/10 08:17:47;;;;;;;25.52;16.27;;;;;;;6.08;47.56;100321.75;5028356;28;20097;-68
2022/03/10 08:20:17;;;;;;;25.85;17.92;;;;;;;6.27;47.75;100321.34;5027946;28;20262;-67
2022/03/10 08:22:47;;;;;;;22.38;15.70;;;;;;;6.42;46.86;100310.47;5027990;28;20037;-67
2022/03/10 08:25:18;;;;;;;24.25;15.73;;;;;;;6.52;47.09;100313.75;5028204;28;20049;-67
2022/03/10 08:27:49;;;;;;;25.23;17.08;;;;;;;6.43;47.26;100278.84;5027984;28;20107;-67
2022/03/10 08:30:18;;;;;;;24.83;18.83;;;;;;;6.66;46.37;100306.41;5027960;28;20100;-68
2022/03/10 08:32:48;;;;;;;23.02;16.60;;;;;;;6.86;46.63;100312.06;5027682;28;20112;-67
2022/03/10 08:35:18;;;;;;;22.15;15.40;;;;;;;7.15;45.86;100297.28;5027762;28;20217;-67
2022/03/10 08:37:49;;;;;;;22.95;14.77;;;;;;;7.35;45.69;100301.16;5027679;28;20038;-67
2022/03/10 08:40:19;;;;;;;20.25;14.73;;;;;;;7.38;45.47;100298.44;5027953;28;20065;-68
2022/03/10 08:42:51;;;;;;;24.10;17.48;;;;;;;7.51;45.35;100300.75;5027870;28;20088;-68
2022/03/10 08:45:20;;;;;;;23.30;16.92;;;;;;;7.54;44.99;100305.94;5027669;28;20209;-67
2022/03/10 08:47:50;;;;;;;24.00;16.40;;;;;;;7.67;44.69;100300.28;5027724;28;20061;-68
2022/03/10 08:50:20;;;;;;;27.60;17.25;;;;;;;7.45;44.66;100300.91;5027772;28;20076;-68
2022/03/10 08:52:51;;;;;;;21.73;14.27;;;;;;;7.41;44.65;100300.13;5026584;28;20042;-68
2022/03/10 08:55:21;;;;;;;22.08;15.50;;;;;;;7.34;44.68;100309.97;5027449;28;20321;-68
2022/03/10 08:57:52;;;;;;;22.13;16.05;;;;;;;4.04;44.77;99779.66;5027230;28;20122;-68
2022/03/10 09:00:21;;;;;;;19.33;14.63;;;;;;;7.10;45.07;100307.94;5027482;28;20065;-67
2022/03/10 09:02:51;;;;;;;19.10;13.82;;;;;;;7.22;44.73;100307.63;5027337;28;20054;-67
2022/03/10 09:05:21;;;;;;;20.63;14.60;;;;;;;7.17;44.66;100300.75;5027405;28;20297;-66
2022/03/10 09:07:52;;;;;;;23.27;16.20;;;;;;;6.75;44.62;100270.16;5027454;28;20041;-67
2022/03/10 09:10:22;;;;;;;19.63;13.50;;;;;;;6.78;45.02;100308.72;5027079;28;20105;-67
2022/03/10 09:12:53;;;;;;;23.70;15.10;;;;;;;6.76;45.10;100315.81;5027011;28;20038;-67
2022/03/10 09:15:22;;;;;;;21.90;14.20;;;;;;;6.70;45.35;100308.91;5026990;28;20236;-67
2022/03/10 09:17:52;;;;;;;17.65;13.65;;;;;;;6.59;45.09;100287.25;5027282;28;20050;-67
2022/03/10 09:20:23;;;;;;;18.88;12.48;;;;;;;6.20;45.17;100225.00;5027000;28;20098;-67
2022/03/10 09:22:53;;;;;;;20.75;14.38;;;;;;;6.65;45.35;100316.06;5025950;28;20065;-67
2022/03/10 09:25:23;;;;;;;21.77;15.40;;;;;;;6.52;45.66;100333.06;5026868;28;20067;-67
2022/03/10 09:27:55;;;;;;;23.25;14.32;;;;;;;6.47;45.60;100331.44;5027011;28;20052;-68
2022/03/10 09:30:24;;;;;;;18.42;13.65;;;;;;;6.47;45.67;100327.03;5026868;28;20037;-68
2022/03/10 09:32:57;;;;;;;16.70;11.70;;;;;;;6.37;45.61;100292.16;5026841;28;20042;-68
2022/03/10 09:35:29;;;;;;;18.52;13.07;;;;;;;6.60;45.63;100320.59;5026500;28;20290;-67
2022/03/10 09:37:59;;;;;;;19.70;13.20;;;;;;;6.64;45.56;100322.25;5026738;28;20053;-68
2022/03/10 09:40:30;;;;;;;18.27;13.27;;;;;;;6.49;45.19;100283.09;5026544;28;20056;-68
2022/03/10 09:43:02;;;;;;;18.17;14.07;;;;;;;6.81;45.34;100326.28;5026574;28;20044;-68
2022/03/10 09:45:31;;;;;;;15.35;11.82;;;;;;;6.83;44.98;100330.59;5026546;28;20357;-68
2022/03/10 09:48:02;;;;;;;19.65;14.20;;;;;;;6.71;45.10;100318.56;5026571;28;20084;-68
2022/03/10 09:50:31;;;;;;;17.02;12.85;;;;;;;5.43;44.89;100089.97;5026422;28;20111;-68
2022/03/10 09:53:01;;;;;;;19.52;14.10;;;;;;;6.68;44.92;100316.00;5026250;28;20057;-68
2022/03/10 09:55:32;;;;;;;16.38;12.05;;;;;;;6.68;45.08;100318.63;5026695;28;20332;-68
2022/03/10 09:58:04;;;;;;;16.17;11.60;;;;;;;6.65;44.85;100313.44;5025868;28;20105;-67
2022/03/10 10:00:32;;;;;;;16.85;12.90;;;;;;;6.74;44.60;100317.63;5026328;28;20068;-67
2022/03/10 10:03:02;;;;;;;15.50;11.60;;;;;;;6.98;44.42;100318.81;5026091;28;20057;-67
2022/03/10 10:05:34;;;;;;;15.35;11.20;;;;;;;7.19;44.19;100310.34;5026106;28;20297;-67
2022/03/10 10:08:09;;;;;;;15.63;11.73;;;;;;;7.49;43.78;100313.97;5026116;28;20066;-67
2022/03/10 10:10:44;;;;;;;16.20;12.20;;;;;;;7.60;43.02;100274.09;5025416;28;20237;-67
2022/03/10 10:13:27;;;;;;;;;;;;;;;7.97;42.42;100306.44;5026478;28;20099;-67
2022/03/10 10:16:01;;;;;;;13.88;10.88;;;;;;;8.04;42.42;100304.47;5025553;28;20212;-67
2022/03/10 10:18:35;;;;;;;13.30;10.07;;;;;;;8.22;42.47;100295.13;5025841;28;20088;-66
2022/03/10 10:21:10;;;;;;;14.50;10.77;;;;;;;7.29;41.77;100147.50;5025830;28;20374;-68
2022/03/10 10:23:42;;;;;;;16.48;11.23;;;;;;;8.23;41.65;100303.00;5025826;28;20045;-67
2022/03/10 10:26:15;;;;;;;14.15;11.68;;;;;;;8.35;41.14;100297.34;5025950;28;20050;-67
2022/03/10 10:28:50;;;;;;;13.95;9.60;;;;;;;8.38;39.97;100298.16;5025726;28;20045;-69
2022/03/10 10:31:24;;;;;;;13.25;9.18;;;;;;;8.43;40.45;100293.59;5025358;28;20045;-67
2022/03/10 10:33:59;;;;;;;13.00;9.55;;;;;;;8.45;40.05;100299.72;5025438;28;20088;-68
2022/03/10 10:36:33;;;;;;;15.02;10.80;;;;;;;8.41;40.67;100293.66;5025594;28;20211;-68
2022/03/10 10:39:11;;;;;;;14.70;9.75;;;;;;;8.38;39.55;100300.81;5025588;28;20041;-67
2022/03/10 10:41:45;;;;;;;12.60;9.10;;;;;;;6.60;40.32;100003.66;5025806;28;20049;-67
2022/03/10 10:44:20;;;;;;;14.85;10.75;;;;;;;8.47;39.82;100295.25;5025790;28;20046;-68
2022/03/10 10:46:58;;;;;;;17.98;11.80;;;;;;;8.39;38.94;100282.28;5025553;28;20088;-67
2022/03/10 10:49:35;;;;;;;16.08;11.70;;;;;;;8.46;39.61;100289.09;5025404;28;20389;-69
2022/03/10 10:52:12;;;;;;;16.10;12.07;;;;;;;8.62;39.79;100295.63;5025422;28;20249;-69
2022/03/10 10:54:46;;;;;;;16.65;11.23;;;;;;;8.72;39.95;100282.09;5025266;28;20116;-69
2022/03/10 10:57:21;;;;;;;14.75;11.48;;;;;;;8.65;39.53;100298.16;5025360;28;20084;-69
2022/03/10 11:00:07;;;;;;;19.33;12.90;;;;;;;8.48;39.16;100281.13;5025609;28;20049;-69
2022/03/10 11:02:46;;;;;;;17.95;12.90;;;;;;;8.46;40.24;100289.09;5025323;28;20091;-69
2022/03/10 11:05:18;;;;;;;16.30;11.20;;;;;;;8.50;39.96;100292.50;5024564;28;20336;-69
2022/03/10 11:07:51;;;;;;;18.52;13.85;;;;;;;8.64;40.23;100280.56;5025056;28;20088;-68
2022/03/10 11:10:23;;;;;;;14.35;10.45;;;;;;;8.95;39.42;100283.06;5024837;28;20042;-69
2022/03/10 11:12:55;;;;;;;14.60;9.25;;;;;;;9.05;38.93;100280.97;5025311;28;20238;-69
2022/03/10 11:15:30;;;;;;;14.48;11.05;;;;;;;9.00;38.60;100273.19;5025307;28;20046;-69
2022/03/10 11:17:59;;;;;;;14.20;11.27;;;;;;;8.92;38.98;100279.66;5025544;28;20133;-70
2022/03/10 11:20:31;;;;;;;13.32;10.32;;;;;;;9.03;38.67;100276.66;5024428;28;20227;-69
2022/03/10 11:23:09;;;;;;;13.40;9.98;;;;;;;8.56;37.98;100205.97;5024611;28;20104;-70
2022/03/10 11:25:46;;;;;;;16.13;11.25;;;;;;;8.94;37.81;100283.13;5023968;28;20058;-69
2022/03/10 11:28:23;;;;;;;16.90;10.73;;;;;;;8.84;38.96;100274.63;5027626;28;20344;-70
2022/03/10 11:31:00;;;;;;;17.60;10.88;;;;;;;8.74;38.78;100275.84;5028415;28;20136;-69
2022/03/10 11:33:34;;;;;;;14.57;9.85;;;;;;;8.72;39.02;100282.97;5028949;28;20092;-68
2022/03/10 11:36:21;;;;;;;14.10;10.10;;;;;;;8.66;37.48;100281.38;5028975;28;20108;-67
2022/03/10 11:38:55;;;;;;;14.80;10.85;;;;;;;8.81;38.75;100274.72;5028939;28;20058;-68
2022/03/10 11:41:28;;;;;;;15.50;10.98;;;;;;;8.97;38.40;100260.06;5028926;28;20041;-68
2022/03/10 11:44:02;;;;;;;14.60;10.23;;;;;;;9.11;38.10;100264.88;5028484;28;20088;-68
2022/03/10 11:46:36;;;;;;;14.05;10.65;;;;;;;9.15;36.70;100265.66;5028287;28;20084;-69
2022/03/10 11:49:11;;;;;;;11.85;8.82;;;;;;;9.03;36.97;100272.22;5028758;28;20041;-69